Time;durP1;ratioP1;P1;durP2;ratioP2;P2;SDS_P1;SDS_P2;PMS_P1;PMS_P2;Temp;Humidity;BMP_temperature;BMP_pressure;BME280_temperature;BME280_humidity;BME280_pressure;Samples;Min_cycle;Max_cycle;Signal;HPM_P1;HPM_P2
2023/02/05 00:00:45;;;;;;;3.80;3.33;;;2.30;84.40;;;;;;4989354;28;20616;-88
2023/02/05 00:03:12;;;;;;;4.97;3.40;;;2.50;87.40;;;;;;4975387;28;20235;-87
2023/02/05 00:05:39;;;;;;;4.70;2.80;;;2.50;83.60;;;;;;4993056;28;20247;-87
2023/02/05 00:08:06;;;;;;;3.80;2.60;;;2.30;82.20;;;;;;4987543;28;20269;-88
2023/02/05 00:10:33;;;;;;;3.80;3.43;;;2.30;87.30;;;;;;4992551;28;20226;-88
2023/02/05 00:13:01;;;;;;;5.83;3.10;;;2.40;85.90;;;;;;4989357;28;20230;-87
2023/02/05 00:15:28;;;;;;;3.53;2.63;;;2.30;83.80;;;;;;4990153;28;20278;-87
2023/02/05 00:17:55;;;;;;;4.00;3.60;;;2.20;83.50;;;;;;4985241;28;20227;-87
2023/02/05 00:20:22;;;;;;;3.43;3.13;;;2.00;84.40;;;;;;4989214;28;20707;-88
2023/02/05 00:22:48;;;;;;;3.80;3.50;;;1.90;83.50;;;;;;4988696;28;20238;-87
2023/02/05 00:25:15;;;;;;;4.87;3.30;;;1.70;86.80;;;;;;4990663;28;20703;-88
2023/02/05 00:27:42;;;;;;;3.80;2.73;;;1.80;87.00;;;;;;4989692;28;20822;-87
2023/02/05 00:30:13;;;;;;;6.57;2.87;;;2.10;87.10;;;;;;4988773;28;20249;-87
2023/02/05 00:32:39;;;;;;;4.37;3.47;;;2.00;87.10;;;;;;4987311;28;20596;-87
2023/02/05 00:35:07;;;;;;;4.17;3.77;;;2.10;87.10;;;;;;4987447;28;20231;-87
2023/02/05 00:37:33;;;;;;;4.57;3.63;;;2.10;85.90;;;;;;4985652;28;20227;-87
2023/02/05 00:40:00;;;;;;;3.87;3.47;;;2.10;87.10;;;;;;4988231;28;20616;-88
2023/02/05 00:42:27;;;;;;;3.70;3.23;;;2.10;85.10;;;;;;4990558;28;21790;-87
2023/02/05 00:44:54;;;;;;;3.87;2.57;;;2.20;87.20;;;;;;4989155;28;20227;-87
2023/02/05 00:47:23;;;;;;;5.13;3.20;;;2.20;84.50;;;;;;4991582;28;20235;-87
2023/02/05 00:49:49;;;;;;;4.03;3.50;;;1.90;85.60;;;;;;4988704;28;20227;-87
2023/02/05 00:52:16;;;;;;;5.83;4.50;;;1.60;86.90;;;;;;4986651;28;20232;-87
2023/02/05 00:54:44;;;;;;;6.33;3.40;;;1.40;87.70;;;;;;4988111;28;20227;-87
2023/02/05 00:57:10;;;;;;;4.07;3.67;;;1.50;90.50;;;;;;4985815;28;20227;-87
2023/02/05 00:59:37;;;;;;;5.73;4.10;;;1.80;90.40;;;;;;4993129;28;20237;-87
2023/02/05 01:02:04;;;;;;;6.97;3.73;;;1.70;88.70;;;;;;4985841;28;20231;-88
2023/02/05 01:04:32;;;;;;;7.43;3.90;;;1.60;89.40;;;;;;4987858;28;20235;-87
2023/02/05 01:06:59;;;;;;;5.27;4.40;;;1.60;90.60;;;;;;4990246;28;20227;-87
2023/02/05 01:09:26;;;;;;;6.80;5.00;;;1.80;90.80;;;;;;4988544;28;20646;-86
2023/02/05 01:11:53;;;;;;;7.57;5.03;;;1.80;90.30;;;;;;4992361;28;20638;-87
2023/02/05 01:14:20;;;;;;;5.43;4.93;;;1.80;90.30;;;;;;4986697;28;20654;-87
2023/02/05 01:16:47;;;;;;;6.23;4.53;;;1.70;90.60;;;;;;4991217;28;20219;-87
2023/02/05 01:19:14;;;;;;;6.33;4.80;;;1.60;91.00;;;;;;4986866;28;20585;-87
2023/02/05 01:21:42;;;;;;;6.67;5.17;;;1.60;91.70;;;;;;4989757;28;20242;-87
2023/02/05 01:24:09;;;;;;;6.17;4.40;;;1.70;92.10;;;;;;4987029;28;21399;-87
2023/02/05 01:26:36;;;;;;;6.73;5.37;;;1.70;91.80;;;;;;4990913;28;20247;-87
2023/02/05 01:29:03;;;;;;;5.80;4.90;;;1.80;92.10;;;;;;4988952;28;20235;-87
2023/02/05 01:31:32;;;;;;;8.10;5.23;;;2.10;92.40;;;;;;4988041;28;20510;-86
2023/02/05 01:33:58;;;;;;;7.20;5.60;;;2.10;91.30;;;;;;4984287;28;20318;-87
2023/02/05 01:36:25;;;;;;;7.27;5.13;;;2.00;90.90;;;;;;4980747;28;20723;-87
2023/02/05 01:38:54;;;;;;;9.60;6.10;;;1.80;91.60;;;;;;4983073;28;20235;-87
2023/02/05 01:41:21;;;;;;;5.80;5.00;;;1.70;91.90;;;;;;4987254;28;20227;-87
2023/02/05 01:44:09;;;;;;;8.30;5.57;;;1.70;92.10;;;;;;4986245;28;20241;-87
2023/02/05 01:46:36;;;;;;;8.13;5.97;;;1.60;92.40;;;;;;4987979;28;20231;-87
2023/02/05 01:49:06;;;;;;;9.20;6.20;;;1.60;92.70;;;;;;4981828;28;20243;-87
2023/02/05 01:51:35;;;;;;;9.20;6.10;;;1.50;92.50;;;;;;4988171;28;20223;-87
2023/02/05 01:54:04;;;;;;;8.30;5.80;;;1.40;92.90;;;;;;4984485;28;20227;-87
2023/02/05 01:56:36;;;;;;;8.47;6.10;;;1.30;92.90;;;;;;4982961;28;20704;-87
2023/02/05 01:59:07;;;;;;;7.53;6.37;;;1.30;93.40;;;;;;4984496;28;20231;-87
2023/02/05 02:01:34;;;;;;;7.50;6.13;;;1.40;94.30;;;;;;4983092;28;20240;-87
2023/02/05 02:04:04;;;;;;;6.50;5.70;;;1.40;93.30;;;;;;4984085;28;20435;-87
2023/02/05 02:06:32;;;;;;;7.83;5.60;;;1.40;93.30;;;;;;4984694;28;20228;-87
2023/02/05 02:09:00;;;;;;;10.03;6.03;;;1.30;93.60;;;;;;4979118;28;21397;-87
2023/02/05 02:11:33;;;;;;;7.13;5.87;;;1.30;93.70;;;;;;4988036;28;20220;-86
2023/02/05 02:14:02;;;;;;;7.50;5.77;;;1.40;93.70;;;;;;4986349;28;20227;-86
2023/02/05 02:16:29;;;;;;;9.17;6.00;;;1.50;94.10;;;;;;4983156;28;20223;-86
2023/02/05 02:18:57;;;;;;;6.23;4.63;;;1.60;93.30;;;;;;4989926;28;20238;-87
2023/02/05 02:21:56;;;;;;;7.33;5.53;;;1.70;93.50;;;;;;4987344;28;20241;-87
2023/02/05 02:24:53;;;;;;;8.27;4.80;;;1.80;93.50;;;;;;4986804;28;20228;-87
2023/02/05 02:27:44;;;;;;;7.13;4.80;;;1.80;93.50;;;;;;4952194;28;20308;-86
2023/02/05 02:30:17;;;;;;;7.20;5.33;;;1.90;93.40;;;;;;4989832;28;20235;-87
2023/02/05 02:32:50;;;;;;;8.90;5.77;;;1.70;92.70;;;;;;4986175;28;20230;-87
2023/02/05 02:35:25;;;;;;;6.43;5.53;;;1.50;93.00;;;;;;4986343;28;20238;-87
2023/02/05 02:37:58;;;;;;;7.20;5.43;;;1.60;94.10;;;;;;4990220;28;20237;-87
2023/02/05 02:40:32;;;;;;;6.57;5.57;;;1.90;93.60;;;;;;4984737;28;20236;-87
2023/02/05 02:43:07;;;;;;;9.53;5.90;;;1.90;92.80;;;;;;4985940;28;20679;-87
2023/02/05 02:45:37;;;;;;;8.60;5.67;;;1.80;92.50;;;;;;4988906;28;20234;-87
2023/02/05 02:48:06;;;;;;;7.67;5.40;;;1.60;92.80;;;;;;4983828;28;20612;-87
2023/02/05 02:50:37;;;;;;;8.93;5.50;;;1.60;92.80;;;;;;4989530;28;20244;-87
2023/02/05 02:53:08;;;;;;;7.37;5.67;;;1.50;93.20;;;;;;4981948;28;20711;-87
2023/02/05 02:55:41;;;;;;;5.47;4.60;;;1.40;93.00;;;;;;4989256;28;20298;-86
2023/02/05 02:58:14;;;;;;;9.17;5.90;;;1.20;93.10;;;;;;4990388;28;20317;-86
2023/02/05 03:00:43;;;;;;;6.53;5.70;;;1.20;93.90;;;;;;4986581;28;20242;-86
2023/02/05 03:03:13;;;;;;;9.03;5.87;;;1.40;94.30;;;;;;4988503;28;20224;-87
2023/02/05 03:05:43;;;;;;;7.80;5.60;;;1.70;94.40;;;;;;4989296;28;20243;-87
2023/02/05 03:08:15;;;;;;;7.40;5.20;;;1.80;93.30;;;;;;4988050;28;20232;-87
2023/02/05 03:10:46;;;;;;;5.27;4.77;;;1.80;93.10;;;;;;4984548;28;20241;-87
2023/02/05 03:13:15;;;;;;;7.03;5.60;;;1.70;92.70;;;;;;4986427;28;20611;-87
2023/02/05 03:15:44;;;;;;;5.83;4.97;;;1.60;93.40;;;;;;4990277;28;20238;-87
2023/02/05 03:18:12;;;;;;;6.07;5.07;;;1.40;92.90;;;;;;4987122;28;20289;-86
2023/02/05 03:20:44;;;;;;;6.33;5.30;;;1.40;93.20;;;;;;4988891;28;20246;-87
2023/02/05 03:23:12;;;;;;;6.10;5.30;;;1.50;94.30;;;;;;4985939;28;22039;-86
2023/02/05 03:25:39;;;;;;;9.87;4.70;;;1.50;93.50;;;;;;4986734;28;20271;-87
2023/02/05 03:28:06;;;;;;;6.67;5.20;;;1.30;93.70;;;;;;4988909;28;20774;-87
2023/02/05 03:30:44;;;;;;;5.77;4.60;;;1.20;94.30;;;;;;4985451;28;20238;-87
2023/02/05 03:33:24;;;;;;;7.40;5.60;;;1.20;94.30;;;;;;4990408;28;20237;-87
2023/02/05 03:35:58;;;;;;;7.93;5.00;;;1.10;93.70;;;;;;4987644;28;20230;-87
2023/02/05 03:38:38;;;;;;;6.70;5.40;;;1.00;94.20;;;;;;4987265;28;20903;-87
2023/02/05 03:41:15;;;;;;;9.87;5.63;;;0.90;94.70;;;;;;4990634;28;20691;-87
2023/02/05 03:43:52;;;;;;;6.23;5.17;;;0.90;94.70;;;;;;4989238;28;20253;-87
2023/02/05 03:46:27;;;;;;;6.53;4.77;;;0.70;94.50;;;;;;4987907;28;20305;-84
2023/02/05 03:49:04;;;;;;;6.90;5.20;;;0.50;95.00;;;;;;4985318;28;20229;-84
2023/02/05 03:51:39;;;;;;;6.70;4.60;;;0.40;95.70;;;;;;4986465;28;21040;-87
2023/02/05 03:54:13;;;;;;;5.37;4.80;;;0.50;96.60;;;;;;4986472;28;20231;-84
2023/02/05 03:56:48;;;;;;;6.70;4.47;;;0.50;96.30;;;;;;4993280;28;20242;-87
2023/02/05 03:59:18;;;;;;;8.73;5.43;;;0.30;96.00;;;;;;4988408;28;20609;-87
2023/02/05 04:01:46;;;;;;;7.00;4.43;;;0.00;96.30;;;;;;4991890;28;20817;-84
2023/02/05 04:04:14;;;;;;;6.13;5.33;;;-0.10;96.80;;;;;;4992702;28;20230;-87
2023/02/05 04:06:41;;;;;;;6.37;4.77;;;-0.10;97.50;;;;;;4991367;28;20223;-86
2023/02/05 04:09:10;;;;;;;6.27;5.13;;;0.00;97.50;;;;;;4989879;28;20297;-84
2023/02/05 04:11:37;;;;;;;5.93;4.80;;;0.20;98.40;;;;;;4987094;28;20231;-84
2023/02/05 04:14:04;;;;;;;7.27;5.10;;;0.20;97.10;;;;;;4988993;28;20223;-87
2023/02/05 04:16:31;;;;;;;5.57;4.90;;;0.00;96.90;;;;;;4991118;28;20231;-87
2023/02/05 04:18:59;;;;;;;5.27;4.63;;;-0.10;97.20;;;;;;4991988;28;20234;-84
2023/02/05 04:21:26;;;;;;;6.60;4.90;;;-0.20;97.90;;;;;;4988377;28;20234;-85
2023/02/05 04:23:53;;;;;;;6.67;4.77;;;-0.20;98.10;;;;;;4988878;28;20602;-85
2023/02/05 04:26:20;;;;;;;5.07;4.57;;;-0.20;98.00;;;;;;4992666;28;20239;-85
2023/02/05 04:28:47;;;;;;;5.53;3.80;;;-0.10;98.00;;;;;;4987769;28;20826;-85
2023/02/05 04:31:14;;;;;;;8.50;5.00;;;0.20;98.40;;;;;;4989808;28;20250;-85
2023/02/05 04:33:41;;;;;;;4.97;4.03;;;0.30;98.00;;;;;;4974962;28;21167;-85
2023/02/05 04:36:10;;;;;;;5.53;4.60;;;0.40;97.40;;;;;;4987819;28;20236;-84
2023/02/05 04:38:37;;;;;;;4.27;3.80;;;0.50;96.30;;;;;;4989648;28;20235;-85
2023/02/05 04:41:04;;;;;;;6.93;3.90;;;0.30;96.10;;;;;;4989440;28;20234;-86
2023/02/05 04:43:31;;;;;;;5.27;4.30;;;0.10;96.40;;;;;;4989090;28;20241;-87
2023/02/05 04:45:58;;;;;;;5.10;4.40;;;0.10;97.00;;;;;;4988015;28;20232;-87
2023/02/05 04:48:25;;;;;;;5.13;4.33;;;0.00;96.90;;;;;;4987183;28;20242;-87
2023/02/05 04:50:52;;;;;;;5.43;4.40;;;-0.10;97.10;;;;;;4992539;28;20230;-87
2023/02/05 04:53:20;;;;;;;5.53;4.63;;;-0.20;97.00;;;;;;4987710;28;20231;-87
2023/02/05 04:55:47;;;;;;;5.40;4.90;;;-0.40;97.10;;;;;;4986537;28;20234;-87
2023/02/05 04:58:14;;;;;;;4.70;4.27;;;-0.40;97.80;;;;;;4987862;28;20714;-87
2023/02/05 05:00:41;;;;;;;4.50;3.93;;;-0.40;97.90;;;;;;4987693;28;20234;-86
2023/02/05 05:03:08;;;;;;;4.90;3.87;;;-0.50;98.00;;;;;;4989138;28;20246;-88
2023/02/05 05:05:35;;;;;;;3.90;3.47;;;-0.50;98.40;;;;;;4988044;28;20231;-88
2023/02/05 05:13:42;;;;;;;5.13;4.33;;;-0.40;98.70;;;;;;5157481;22;20609;-89
2023/02/05 05:16:11;;;;;;;3.97;3.40;;;-0.50;97.90;;;;;;5095698;28;20219;-89
2023/02/05 05:18:39;;;;;;;4.30;3.30;;;-0.50;98.50;;;;;;5091659;28;20204;-92
2023/02/05 05:21:06;;;;;;;3.67;3.33;;;0.00;98.60;;;;;;5092728;28;20247;-91
2023/02/05 05:23:34;;;;;;;4.60;3.40;;;0.00;97.30;;;;;;5086786;28;20230;-91
2023/02/05 05:26:07;;;;;;;5.07;3.87;;;-0.10;97.40;;;;;;5082427;28;20205;-91
2023/02/05 05:34:38;;;;;;;3.90;3.33;;;0.10;96.70;;;;;;5071395;28;20292;-91
2023/02/05 05:37:06;;;;;;;4.00;3.03;;;0.20;97.20;;;;;;5069423;28;20718;-90
2023/02/05 05:45:02;;;;;;;5.53;3.50;;;0.10;96.10;;;;;;5071065;28;20568;-89
2023/02/05 05:47:30;;;;;;;4.43;3.37;;;-0.10;96.60;;;;;;5076001;28;20265;-87
2023/02/05 05:49:57;;;;;;;4.20;3.43;;;-0.10;96.80;;;;;;5082087;28;20198;-86
2023/02/05 05:52:24;;;;;;;5.17;3.87;;;-0.20;96.60;;;;;;5078946;28;20229;-88
2023/02/05 05:54:51;;;;;;;6.07;4.00;;;-0.40;96.60;;;;;;5084010;28;20273;-88
2023/02/05 05:57:17;;;;;;;4.30;3.70;;;-0.50;97.20;;;;;;5079799;28;20185;-89
2023/02/05 05:59:44;;;;;;;7.40;3.73;;;-0.70;97.60;;;;;;5083671;28;20200;-87
2023/02/05 06:02:11;;;;;;;4.10;3.57;;;-0.70;98.40;;;;;;5088831;28;20188;-89
2023/02/05 06:04:40;;;;;;;4.03;3.63;;;-0.60;98.10;;;;;;5069254;28;20192;-90
2023/02/05 06:07:06;;;;;;;4.13;3.60;;;-0.60;97.80;;;;;;5079064;28;20657;-86
2023/02/05 06:09:33;;;;;;;5.20;3.40;;;-0.50;97.70;;;;;;5059365;28;20205;-92
2023/02/05 06:12:00;;;;;;;3.97;3.53;;;-0.40;97.80;;;;;;5084589;28;20237;-88
2023/02/05 06:14:27;;;;;;;4.10;3.50;;;-0.50;97.50;;;;;;5078844;28;20194;-94
2023/02/05 06:16:54;;;;;;;3.70;3.40;;;-0.30;97.90;;;;;;5079759;28;20213;-90
2023/02/05 06:19:21;;;;;;;4.33;3.50;;;-0.20;97.40;;;;;;5073699;28;20202;-90
2023/02/05 06:21:49;;;;;;;4.70;4.23;;;-0.20;96.90;;;;;;5129511;22;20247;-87
2023/02/05 06:24:16;;;;;;;4.80;3.63;;;-0.40;96.90;;;;;;5091475;28;20231;-90
2023/02/05 06:26:43;;;;;;;5.40;3.97;;;-0.50;97.20;;;;;;5080863;28;20205;-88
2023/02/05 06:29:10;;;;;;;4.83;3.77;;;-0.50;97.50;;;;;;5078561;28;20220;-89
2023/02/05 06:31:37;;;;;;;3.80;3.40;;;-0.60;97.70;;;;;;5071893;28;20233;-87
2023/02/05 06:34:04;;;;;;;4.80;3.70;;;-0.50;98.20;;;;;;5074794;28;20205;-88
2023/02/05 06:36:30;;;;;;;3.77;3.17;;;-0.20;98.00;;;;;;5068238;28;20301;-91
2023/02/05 06:38:59;;;;;;;3.33;3.03;;;0.00;97.10;;;;;;5075782;28;20874;-88
2023/02/05 06:41:25;;;;;;;4.93;3.73;;;0.10;96.70;;;;;;5068220;28;20229;-86
2023/02/05 06:43:52;;;;;;;4.30;3.30;;;0.00;96.40;;;;;;5076382;28;20224;-88
2023/02/05 06:46:19;;;;;;;3.67;3.13;;;-0.10;97.00;;;;;;5072919;28;20206;-91
2023/02/05 06:48:46;;;;;;;4.37;3.23;;;0.00;97.40;;;;;;5076764;28;20216;-90
2023/02/05 06:51:13;;;;;;;4.70;3.37;;;0.10;97.20;;;;;;5069587;28;20198;-88
2023/02/05 06:53:40;;;;;;;4.33;3.90;;;0.20;96.70;;;;;;5079906;28;20231;-90
2023/02/05 06:56:08;;;;;;;4.30;3.30;;;0.00;96.40;;;;;;5074966;28;20257;-85
2023/02/05 06:58:35;;;;;;;4.53;3.57;;;0.00;96.90;;;;;;5072667;28;20220;-88
2023/02/05 07:01:02;;;;;;;4.87;3.73;;;0.20;96.80;;;;;;5075905;28;20202;-91
2023/02/05 07:03:29;;;;;;;3.90;3.50;;;0.10;96.10;;;;;;5080470;28;20277;-88
2023/02/05 07:06:01;;;;;;;5.10;4.00;;;-0.10;96.30;;;;;;5080414;28;20213;-87
2023/02/05 07:08:27;;;;;;;3.53;3.20;;;-0.30;96.80;;;;;;5085690;28;20193;-92
2023/02/05 07:10:54;;;;;;;5.23;3.63;;;-0.20;97.50;;;;;;5072925;28;20200;-89
2023/02/05 07:13:23;;;;;;;6.90;4.37;;;-0.10;97.70;;;;;;5087783;28;20233;-90
2023/02/05 07:15:49;;;;;;;6.07;4.37;;;0.10;97.00;;;;;;5079409;28;20220;-87
2023/02/05 07:18:16;;;;;;;5.97;4.17;;;-0.10;96.80;;;;;;5105741;22;20234;-89
2023/02/05 07:25:51;;;;;;;5.00;4.30;;;0.70;98.40;;;;;;5334301;23;20248;-89
2023/02/05 07:28:18;;;;;;;5.47;4.40;;;0.70;95.90;;;;;;5084115;28;20205;-93
2023/02/05 07:46:08;;;;;;;5.57;4.80;;;1.20;95.70;;;;;;5863719;23;20218;-88
2023/02/05 07:48:35;;;;;;;6.20;4.10;;;1.30;94.30;;;;;;5028661;28;20313;-91
2023/02/05 07:53:39;;;;;;;4.90;4.20;;;1.40;94.90;;;;;;5517451;23;20273;-88
2023/02/05 07:56:06;;;;;;;6.03;3.73;;;1.20;94.30;;;;;;5037616;28;20205;-89
2023/02/05 07:58:33;;;;;;;5.23;4.10;;;1.40;94.80;;;;;;5039277;28;20222;-87
2023/02/05 08:01:01;;;;;;;4.87;3.80;;;1.80;94.40;;;;;;5026931;28;20203;-88
2023/02/05 08:03:29;;;;;;;5.30;4.00;;;2.00;93.10;;;;;;5033853;28;20291;-92
2023/02/05 08:05:56;;;;;;;4.13;3.73;;;2.00;92.20;;;;;;5023549;28;20277;-87
2023/02/05 08:08:24;;;;;;;4.90;4.00;;;1.70;92.30;;;;;;5024122;28;20211;-91
2023/02/05 08:11:02;;;;;;;4.27;3.83;;;1.60;92.80;;;;;;5023396;28;20225;-91
2023/02/05 08:13:29;;;;;;;5.13;4.10;;;1.50;93.70;;;;;;5026976;28;20653;-91
2023/02/05 08:15:56;;;;;;;3.90;3.50;;;1.70;93.20;;;;;;5028799;28;20206;-90
2023/02/05 08:18:23;;;;;;;4.80;4.30;;;2.00;93.40;;;;;;5030035;28;20249;-90
2023/02/05 08:30:56;;;;;;;5.43;4.40;;;1.90;93.00;;;;;;5453892;23;20261;-91
2023/02/05 08:33:25;;;;;;;5.47;4.73;;;2.00;92.90;;;;;;5350950;23;20257;-90
2023/02/05 08:35:51;;;;;;;6.67;4.33;;;2.10;93.30;;;;;;5052108;23;20281;-93
2023/02/05 08:38:18;;;;;;;4.37;3.80;;;2.40;92.70;;;;;;5032194;28;20184;-92
2023/02/05 08:40:46;;;;;;;5.67;4.63;;;3.00;91.30;;;;;;5432092;23;20219;-90
2023/02/05 08:43:12;;;;;;;4.83;4.10;;;3.30;87.10;;;;;;5013964;28;20194;-92
2023/02/05 08:45:39;;;;;;;4.57;3.87;;;3.40;85.80;;;;;;5088016;23;20221;-93
2023/02/05 08:53:24;;;;;;;4.87;4.30;;;3.50;84.10;;;;;;5704867;23;20254;-93
2023/02/05 08:55:55;;;;;;;4.13;3.73;;;3.60;82.60;;;;;;5538615;23;20213;-90
2023/02/05 09:01:12;;;;;;;4.20;3.47;;;3.60;83.20;;;;;;5037456;28;20230;-91
2023/02/05 09:03:38;;;;;;;5.93;4.00;;;3.90;82.90;;;;;;5211731;23;20226;-90
2023/02/05 09:19:46;;;;;;;4.28;3.88;;;6.80;45.70;;;;;;5256615;23;20236;-92
2023/02/05 09:22:14;;;;;;;6.03;4.32;;;6.80;46.90;;;;;;5161838;23;22755;-95
2023/02/05 09:24:41;;;;;;;5.35;4.72;;;7.10;46.00;;;;;;5847771;23;20217;-94
2023/02/05 09:29:43;;;;;;;4.93;4.43;;;8.20;38.90;;;;;;5272108;23;20242;-91
2023/02/05 09:32:10;;;;;;;7.30;4.38;;;8.40;34.90;;;;;;5014039;28;20207;-94
2023/02/05 09:37:14;;;;;;;5.38;4.13;;;7.80;38.80;;;;;;5338394;23;20234;-94
2023/02/05 09:39:42;;;;;;;5.38;4.65;;;9.20;31.90;;;;;;5034618;28;20202;-93
2023/02/05 09:42:19;;;;;;;5.70;4.57;;;9.70;29.60;;;;;;5166680;23;20239;-93
2023/02/05 09:44:58;;;;;;;6.20;4.75;;;9.60;29.80;;;;;;4995888;28;20242;-88
2023/02/05 09:47:31;;;;;;;5.28;4.50;;;9.80;28.00;;;;;;4987502;28;20208;-89
2023/02/05 09:50:17;;;;;;;5.85;5.35;;;9.90;28.70;;;;;;5742063;23;20326;-91
2023/02/05 09:52:49;;;;;;;5.53;4.70;;;10.00;27.50;;;;;;4989826;28;20232;-90
2023/02/05 09:55:22;;;;;;;4.95;4.55;;;10.20;26.70;;;;;;4996966;28;20204;-91
2023/02/05 10:09:07;;;;;;;4.07;2.70;;;11.00;24.50;;;;;;4957829;29;20232;-87
2023/02/05 10:14:58;;;;;;;5.50;3.63;;;10.60;22.30;;;;;;4938620;29;20217;-88
2023/02/05 10:17:43;;;;;;;4.20;3.60;;;10.80;21.80;;;;;;4930328;28;20385;-91
2023/02/05 10:33:50;;;;;;;5.82;3.00;;;9.30;24.50;;;;;;6036728;23;20309;-95
2023/02/05 10:36:21;;;;;;;5.65;3.53;;;8.90;24.80;;;;;;5009362;28;20211;-94
2023/02/05 10:38:50;;;;;;;6.45;3.33;;;8.80;29.50;;;;;;5013827;28;20219;-95
2023/02/05 10:44:12;;;;;;;3.42;3.00;;;9.40;26.50;;;;;;4956783;28;20201;-92
2023/02/05 10:46:41;;;;;;;6.05;3.50;;;9.70;24.80;;;;;;4997538;28;20290;-91
2023/02/05 11:00:01;;;;;;;5.95;3.03;;;8.60;28.00;;;;;;4998051;28;20184;-91
2023/02/05 11:53:23;;;;;;;7.05;2.58;;;6.30;40.10;;;;;;5061424;23;20246;-91
2023/02/05 11:55:56;;;;;;;8.00;2.60;;;6.10;40.20;;;;;;5011513;28;20207;-90
2023/02/05 11:58:26;;;;;;;6.65;2.85;;;6.10;42.80;;;;;;5007683;28;20215;-91
2023/02/05 12:00:56;;;;;;;7.30;2.58;;;6.10;44.50;;;;;;5013442;28;20199;-91
2023/02/05 12:03:28;;;;;;;9.30;2.85;;;6.10;45.20;;;;;;5021997;28;20207;-91
2023/02/05 12:06:03;;;;;;;8.38;2.70;;;5.90;45.80;;;;;;5012196;28;20257;-91
2023/02/05 12:08:39;;;;;;;8.20;2.28;;;5.90;45.50;;;;;;5007590;28;20293;-91
2023/02/05 12:11:59;;;;;;;6.13;2.72;;;5.90;45.90;;;;;;5000956;28;20199;-91
2023/02/05 12:14:29;;;;;;;8.27;3.30;;;5.80;45.00;;;;;;5006069;28;20572;-91
2023/02/05 12:17:05;;;;;;;6.13;2.72;;;5.60;48.50;;;;;;4996322;28;20210;-90
2023/02/05 12:19:39;;;;;;;9.45;2.55;;;5.50;50.70;;;;;;4984821;28;20608;-91
2023/02/05 12:22:15;;;;;;;9.82;2.70;;;5.60;49.60;;;;;;5011892;28;22406;-91
2023/02/05 12:25:09;;;;;;;8.38;2.70;;;5.60;49.90;;;;;;5002468;28;20230;-92
2023/02/05 12:27:50;;;;;;;6.87;2.53;;;5.50;55.30;;;;;;5002217;28;20212;-91
2023/02/05 12:30:32;;;;;;;6.97;2.43;;;5.50;50.90;;;;;;4997803;28;20214;-91
2023/02/05 12:33:14;;;;;;;6.03;2.57;;;5.60;50.50;;;;;;4998234;28;20595;-91
2023/02/05 12:35:58;;;;;;;5.70;2.30;;;5.70;53.60;;;;;;4994201;28;20964;-90
2023/02/05 12:38:43;;;;;;;5.22;2.50;;;5.60;51.90;;;;;;5008058;28;20203;-92
2023/02/05 12:41:23;;;;;;;8.07;2.93;;;5.70;47.80;;;;;;4999831;28;20200;-91
2023/02/05 12:43:53;;;;;;;9.67;3.07;;;5.70;50.70;;;;;;4992664;28;20219;-91
2023/02/05 12:46:46;;;;;;;6.32;2.80;;;5.70;49.90;;;;;;5008912;28;20217;-91
2023/02/05 12:49:34;;;;;;;6.68;2.90;;;5.70;51.50;;;;;;5000711;28;20290;-91
2023/02/05 12:52:21;;;;;;;11.33;2.90;;;5.60;53.70;;;;;;5004238;28;20231;-90
2023/02/05 12:54:59;;;;;;;6.47;2.73;;;5.50;55.90;;;;;;4992748;28;20290;-91
2023/02/05 12:57:35;;;;;;;6.70;2.60;;;5.30;56.70;;;;;;5002134;28;20837;-92
2023/02/05 13:00:06;;;;;;;7.67;2.83;;;5.30;60.00;;;;;;4998435;28;20222;-91
2023/02/05 13:02:40;;;;;;;6.95;2.75;;;5.30;61.20;;;;;;5003460;28;20216;-91
2023/02/05 13:05:15;;;;;;;7.10;2.63;;;5.50;60.80;;;;;;5002115;28;20204;-92
2023/02/05 13:07:45;;;;;;;11.83;3.23;;;5.60;58.20;;;;;;5003335;28;20213;-91
2023/02/05 13:10:17;;;;;;;6.73;2.87;;;5.60;58.20;;;;;;4989648;28;20206;-91
2023/02/05 13:12:51;;;;;;;10.15;3.22;;;5.50;56.70;;;;;;4997029;28;20214;-90
2023/02/05 13:15:22;;;;;;;13.20;3.28;;;5.50;60.40;;;;;;4993990;28;20671;-91
2023/02/05 13:17:55;;;;;;;11.67;3.30;;;5.50;58.70;;;;;;4984792;28;20215;-92
2023/02/05 13:28:38;;;;;;;7.50;2.73;;;5.40;63.70;;;;;;5007263;28;20207;-91
2023/02/05 13:28:53;;;;;;;11.50;3.50;;;5.10;72.90;;;;;;5004749;28;20257;-92
2023/02/05 13:31:27;;;;;;;11.20;3.33;;;5.10;74.10;;;;;;4999998;28;20218;-91
2023/02/05 13:33:56;;;;;;;12.83;3.60;;;5.10;76.60;;;;;;5003491;28;20233;-92
2023/02/05 13:36:59;;;;;;;16.43;3.40;;;5.00;79.70;;;;;;5007584;28;20221;-90
2023/02/05 13:39:49;;;;;;;10.73;3.30;;;4.90;82.00;;;;;;5007280;28;20207;-92
2023/02/05 13:42:41;;;;;;;8.73;3.63;;;4.70;85.00;;;;;;5007059;28;20237;-90
2023/02/05 13:45:36;;;;;;;10.00;3.73;;;4.60;88.60;;;;;;5004592;28;20212;-90
2023/02/05 13:48:26;;;;;;;9.90;3.50;;;4.60;88.70;;;;;;5002286;28;20204;-94
2023/02/05 13:51:26;;;;;;;12.00;3.93;;;4.50;90.70;;;;;;5003322;28;20302;-91
2023/02/05 13:54:11;;;;;;;8.47;3.63;;;4.40;91.70;;;;;;4971656;28;20242;-91
2023/02/05 13:56:48;;;;;;;15.20;4.27;;;4.20;92.50;;;;;;5003004;28;20668;-88
2023/02/05 13:59:18;;;;;;;11.03;4.37;;;4.20;93.00;;;;;;5007701;28;20219;-90
2023/02/05 14:01:54;;;;;;;15.23;4.50;;;4.00;93.60;;;;;;5008744;28;20671;-90
2023/02/05 14:04:26;;;;;;;13.23;3.83;;;4.00;94.20;;;;;;5010240;28;20497;-90
2023/02/05 14:07:00;;;;;;;9.70;3.70;;;4.20;94.10;;;;;;5001269;28;20731;-90
2023/02/05 14:09:34;;;;;;;11.30;3.83;;;4.20;93.80;;;;;;5010339;28;20211;-88
2023/02/05 14:12:05;;;;;;;10.10;3.67;;;4.20;94.30;;;;;;5002215;28;20203;-89
2023/02/05 14:14:34;;;;;;;10.60;4.63;;;4.00;94.90;;;;;;5006990;28;20223;-90
2023/02/05 14:17:23;;;;;;;16.70;3.83;;;4.10;94.90;;;;;;5009308;28;20211;-91
2023/02/05 14:19:56;;;;;;;11.57;4.40;;;4.30;94.90;;;;;;4999748;28;20210;-91
2023/02/05 14:22:41;;;;;;;10.93;4.57;;;4.60;94.10;;;;;;5005522;28;20292;-96
2023/02/05 14:25:41;;;;;;;13.67;4.33;;;4.60;94.20;;;;;;5006114;28;20278;-91
2023/02/05 14:28:33;;;;;;;11.03;4.67;;;4.50;95.00;;;;;;5009888;28;20195;-90
2023/02/05 14:31:02;;;;;;;16.60;4.40;;;4.40;95.00;;;;;;5000172;28;20210;-91
2023/02/05 14:33:41;;;;;;;13.13;5.03;;;4.40;95.30;;;;;;5004883;28;20316;-92
2023/02/05 14:36:35;;;;;;;14.30;5.03;;;4.40;95.20;;;;;;4993870;28;20199;-86
2023/02/05 14:39:05;;;;;;;10.77;4.60;;;4.30;95.50;;;;;;5002553;28;20537;-91
2023/02/05 14:41:49;;;;;;;13.77;4.90;;;4.50;95.00;;;;;;5014516;28;20205;-93
2023/02/05 14:47:30;;;;;;;13.23;4.40;;;4.30;94.90;;;;;;5002334;28;20231;-91
2023/02/05 14:50:37;;;;;;;9.80;4.20;;;4.10;95.80;;;;;;5003635;28;20200;-90
2023/02/05 14:53:28;;;;;;;13.83;4.97;;;3.90;95.90;;;;;;5021210;28;20302;-93
2023/02/05 14:55:55;;;;;;;18.30;4.83;;;4.00;96.70;;;;;;5008659;28;20203;-91
2023/02/05 15:01:59;;;;;;;11.97;5.03;;;4.00;96.70;;;;;;4960004;29;20341;-91
2023/02/05 15:07:37;;;;;;;16.97;5.40;;;4.20;96.90;;;;;;4940609;28;20217;-91
2023/02/05 15:10:07;;;;;;;15.73;5.70;;;4.20;96.20;;;;;;4948547;28;20224;-93
2023/02/05 15:12:57;;;;;;;13.50;5.00;;;4.20;96.50;;;;;;4947174;28;20205;-94
2023/02/05 15:15:30;;;;;;;13.53;5.80;;;4.20;96.50;;;;;;4948156;28;20233;-94
2023/02/05 15:18:22;;;;;;;12.23;5.27;;;4.10;96.80;;;;;;4956310;28;20205;-93
2023/02/05 15:20:54;;;;;;;11.30;4.80;;;4.10;97.10;;;;;;4953144;29;20215;-94
2023/02/05 15:23:30;;;;;;;14.13;5.53;;;4.10;96.80;;;;;;4946108;28;20221;-90
2023/02/05 15:26:02;;;;;;;17.70;5.77;;;4.20;96.90;;;;;;4973814;28;20641;-92
2023/02/05 15:28:34;;;;;;;11.50;4.90;;;4.10;97.10;;;;;;5006801;28;20207;-94
2023/02/05 15:31:25;;;;;;;12.57;5.47;;;4.00;97.20;;;;;;5010814;28;20213;-94
2023/02/05 15:33:59;;;;;;;12.67;5.43;;;4.10;97.30;;;;;;5010957;28;20231;-92
2023/02/05 15:36:34;;;;;;;13.83;4.90;;;4.20;97.20;;;;;;5003528;28;20199;-92
2023/02/05 15:39:24;;;;;;;12.13;4.93;;;4.00;97.10;;;;;;5010353;28;20663;-91
2023/02/05 15:41:55;;;;;;;14.80;4.93;;;4.00;97.50;;;;;;5006096;28;20281;-93
2023/02/05 15:44:26;;;;;;;15.37;5.30;;;3.90;97.30;;;;;;5006816;28;20203;-95
2023/02/05 15:46:56;;;;;;;14.60;5.93;;;3.80;97.40;;;;;;5003109;28;20319;-92
2023/02/05 15:49:34;;;;;;;12.87;5.20;;;3.80;97.70;;;;;;4989858;28;20207;-93
2023/02/05 15:52:02;;;;;;;11.50;5.00;;;3.80;97.80;;;;;;5008146;28;20231;-93
2023/02/05 15:54:33;;;;;;;13.60;5.67;;;3.80;97.50;;;;;;5001861;28;20238;-93
2023/02/05 15:57:00;;;;;;;15.37;5.23;;;3.70;97.70;;;;;;5001131;28;20258;-93
2023/02/05 15:59:29;;;;;;;14.17;5.23;;;3.60;97.90;;;;;;5002898;28;20196;-94
2023/02/05 16:02:03;;;;;;;9.90;4.97;;;3.60;98.30;;;;;;5008185;28;20217;-93
2023/02/05 16:04:32;;;;;;;19.00;5.90;;;3.70;98.30;;;;;;5006180;28;20287;-93
2023/02/05 16:09:38;;;;;;;15.43;6.00;;;3.70;98.20;;;;;;5738543;23;21401;-90
2023/02/05 16:14:42;;;;;;;18.53;5.93;;;3.50;98.60;;;;;;5564663;23;20241;-94
2023/02/05 16:17:13;;;;;;;12.47;5.90;;;3.50;98.80;;;;;;5056921;28;20233;-93
2023/02/05 16:19:44;;;;;;;17.83;6.60;;;3.60;98.50;;;;;;5044893;28;20226;-92
2023/02/05 16:22:23;;;;;;;13.90;6.13;;;3.70;98.30;;;;;;5046131;28;20202;-91
2023/02/05 16:24:54;;;;;;;14.97;7.40;;;3.70;98.50;;;;;;5440142;23;20243;-93
2023/02/05 16:30:30;;;;;;;12.90;7.10;;;3.50;99.00;;;;;;5443188;23;20527;-93